Terminal Aerodrome Forecast
Issued by NWS

Home | Current Version | Previous Version | Text Only | Print | Product List | Glossary On
Versions: 1 2 3 4 5 6 7 8 9 10 11 12 13 14 15 16 17 18 19 20 21 22 23 24 25 26 27 28 29 30
000
FTUS45 KSLC 292352
TAFEVW
TAF
KEVW 292352Z 3000/3024 03006KT P6SM BKN050
     FM300500 15006KT P6SM SCT150
     FM301500 23007KT P6SM SCT070 SCT120
     FM302100 25016G26KT P6SM BKN070 BKN200=

USA.gov is the U.S. government's official web portal to all federal, state and local government web resources and services.